sensor_id;sensor_type;location;lat;lon;timestamp;temperature;humidity
15152;DHT22;7676;50.900;6.234;2023-04-25T00:07:24;10.80;99.90
15152;DHT22;7676;50.900;6.234;2023-04-25T00:22:27;10.60;99.90
15152;DHT22;7676;50.900;6.234;2023-04-25T00:37:29;10.60;99.90
15152;DHT22;7676;50.900;6.234;2023-04-25T00:52:32;10.50;99.90
15152;DHT22;7676;50.900;6.234;2023-04-25T01:07:34;10.20;99.90
15152;DHT22;7676;50.900;6.234;2023-04-25T01:22:37;10.30;99.90
15152;DHT22;7676;50.900;6.234;2023-04-25T01:37:44;10.20;99.90
15152;DHT22;7676;50.900;6.234;2023-04-25T01:52:47;10.20;99.90
15152;DHT22;7676;50.900;6.234;2023-04-25T02:07:50;10.00;99.90
15152;DHT22;7676;50.900;6.234;2023-04-25T02:22:53;10.20;99.90
15152;DHT22;7676;50.900;6.234;2023-04-25T02:37:55;10.30;99.90
15152;DHT22;7676;50.900;6.234;2023-04-25T02:52:58;10.00;99.90
15152;DHT22;7676;50.900;6.234;2023-04-25T03:08:05;9.90;99.90
15152;DHT22;7676;50.900;6.234;2023-04-25T03:23:09;10.00;99.90
15152;DHT22;7676;50.900;6.234;2023-04-25T03:38:14;9.80;99.90
15152;DHT22;7676;50.900;6.234;2023-04-25T03:53:17;10.00;99.90
15152;DHT22;7676;50.900;6.234;2023-04-25T04:08:49;9.90;99.90
15152;DHT22;7676;50.900;6.234;2023-04-25T04:23:52;9.80;99.90
15152;DHT22;7676;50.900;6.234;2023-04-25T04:38:55;9.80;99.90
15152;DHT22;7676;50.900;6.234;2023-04-25T04:54:10;9.50;99.90
15152;DHT22;7676;50.900;6.234;2023-04-25T05:09:41;9.40;99.90
15152;DHT22;7676;50.900;6.234;2023-04-25T05:24:52;9.30;99.90
15152;DHT22;7676;50.900;6.234;2023-04-25T05:40:13;9.20;99.90
15152;DHT22;7676;50.900;6.234;2023-04-25T05:55:19;9.30;99.90
15152;DHT22;7676;50.900;6.234;2023-04-25T06:10:22;9.40;99.90
15152;DHT22;7676;50.900;6.234;2023-04-25T06:25:26;9.50;99.90
15152;DHT22;7676;50.900;6.234;2023-04-25T07:12:00;9.50;99.90
15152;DHT22;7676;50.900;6.234;2023-04-25T07:27:06;9.20;99.90
15152;DHT22;7676;50.900;6.234;2023-04-25T07:42:38;9.50;99.90
15152;DHT22;7676;50.900;6.234;2023-04-25T07:57:45;9.20;99.90
15152;DHT22;7676;50.900;6.234;2023-04-25T08:12:48;10.10;99.90
15152;DHT22;7676;50.900;6.234;2023-04-25T08:27:52;10.00;99.90
15152;DHT22;7676;50.900;6.234;2023-04-25T08:43:01;9.90;99.90
15152;DHT22;7676;50.900;6.234;2023-04-25T08:58:07;9.60;99.90
15152;DHT22;7676;50.900;6.234;2023-04-25T09:13:20;10.40;99.90
15152;DHT22;7676;50.900;6.234;2023-04-25T09:29:08;10.20;99.90
15152;DHT22;7676;50.900;6.234;2023-04-25T09:44:23;10.60;99.90
15152;DHT22;7676;50.900;6.234;2023-04-25T09:59:30;10.80;99.90
15152;DHT22;7676;50.900;6.234;2023-04-25T10:14:34;11.50;99.90
15152;DHT22;7676;50.900;6.234;2023-04-25T10:29:42;11.90;99.90
15152;DHT22;7676;50.900;6.234;2023-04-25T10:45:05;12.40;99.90
15152;DHT22;7676;50.900;6.234;2023-04-25T11:00:22;12.40;99.90
15152;DHT22;7676;50.900;6.234;2023-04-25T11:15:51;12.50;99.90
15152;DHT22;7676;50.900;6.234;2023-04-25T11:31:15;11.80;99.90
15152;DHT22;7676;50.900;6.234;2023-04-25T11:46:20;12.10;99.90
15152;DHT22;7676;50.900;6.234;2023-04-25T12:01:33;12.60;99.90
15152;DHT22;7676;50.900;6.234;2023-04-25T12:16:45;12.80;99.90
15152;DHT22;7676;50.900;6.234;2023-04-25T12:31:50;13.50;99.90
15152;DHT22;7676;50.900;6.234;2023-04-25T12:46:54;11.60;99.90
15152;DHT22;7676;50.900;6.234;2023-04-25T13:01:57;11.10;99.90
15152;DHT22;7676;50.900;6.234;2023-04-25T13:17:00;12.50;99.90
15152;DHT22;7676;50.900;6.234;2023-04-25T13:32:04;12.30;99.90
15152;DHT22;7676;50.900;6.234;2023-04-25T13:47:08;11.30;99.90
15152;DHT22;7676;50.900;6.234;2023-04-25T14:02:11;11.50;99.90
15152;DHT22;7676;50.900;6.234;2023-04-25T14:17:15;11.60;99.90
15152;DHT22;7676;50.900;6.234;2023-04-25T14:32:18;10.90;99.90
15152;DHT22;7676;50.900;6.234;2023-04-25T14:47:21;11.60;99.90
15152;DHT22;7676;50.900;6.234;2023-04-25T15:02:27;12.30;99.90
15152;DHT22;7676;50.900;6.234;2023-04-25T15:17:31;12.20;99.90
15152;DHT22;7676;50.900;6.234;2023-04-25T15:32:34;12.30;99.90
15152;DHT22;7676;50.900;6.234;2023-04-25T15:47:39;11.80;99.90
15152;DHT22;7676;50.900;6.234;2023-04-25T16:02:46;10.90;99.90
15152;DHT22;7676;50.900;6.234;2023-04-25T16:17:50;11.10;99.90
15152;DHT22;7676;50.900;6.234;2023-04-25T16:32:53;11.20;99.90
15152;DHT22;7676;50.900;6.234;2023-04-25T16:48:03;11.80;99.90
15152;DHT22;7676;50.900;6.234;2023-04-25T17:03:10;11.90;99.90
15152;DHT22;7676;50.900;6.234;2023-04-25T17:18:13;11.40;99.90
15152;DHT22;7676;50.900;6.234;2023-04-25T17:33:19;10.90;99.90
15152;DHT22;7676;50.900;6.234;2023-04-25T17:48:22;10.70;99.90
15152;DHT22;7676;50.900;6.234;2023-04-25T18:03:25;10.70;99.90
15152;DHT22;7676;50.900;6.234;2023-04-25T18:18:28;10.90;99.90
15152;DHT22;7676;50.900;6.234;2023-04-25T18:33:34;11.00;99.90
15152;DHT22;7676;50.900;6.234;2023-04-25T18:48:37;9.90;99.90
15152;DHT22;7676;50.900;6.234;2023-04-25T19:03:41;9.70;99.90
15152;DHT22;7676;50.900;6.234;2023-04-25T19:18:45;9.90;99.90
15152;DHT22;7676;50.900;6.234;2023-04-25T19:33:49;9.90;99.90
15152;DHT22;7676;50.900;6.234;2023-04-25T19:49:00;10.00;99.90
15152;DHT22;7676;50.900;6.234;2023-04-25T20:04:03;9.90;99.90
15152;DHT22;7676;50.900;6.234;2023-04-25T20:19:07;10.20;99.90
15152;DHT22;7676;50.900;6.234;2023-04-25T20:34:09;10.40;99.90
15152;DHT22;7676;50.900;6.234;2023-04-25T20:49:13;10.30;99.90
15152;DHT22;7676;50.900;6.234;2023-04-25T21:04:15;9.90;99.90
15152;DHT22;7676;50.900;6.234;2023-04-25T21:19:19;10.00;99.90
15152;DHT22;7676;50.900;6.234;2023-04-25T21:34:21;10.10;99.90
15152;DHT22;7676;50.900;6.234;2023-04-25T21:49:24;10.10;99.90
15152;DHT22;7676;50.900;6.234;2023-04-25T22:04:31;9.90;99.90
15152;DHT22;7676;50.900;6.234;2023-04-25T22:19:36;9.90;99.90
15152;DHT22;7676;50.900;6.234;2023-04-25T22:34:39;9.60;99.90
15152;DHT22;7676;50.900;6.234;2023-04-25T22:49:43;9.60;99.90
15152;DHT22;7676;50.900;6.234;2023-04-25T23:04:47;9.40;99.90
15152;DHT22;7676;50.900;6.234;2023-04-25T23:19:53;8.90;99.90
15152;DHT22;7676;50.900;6.234;2023-04-25T23:49:59;8.90;99.90
